createdAt,value
2019-04-21T00:00:58.127Z,12.80
2019-04-21T00:03:32.528Z,12.70
2019-04-21T00:06:15.637Z,12.80
2019-04-21T00:08:52.206Z,12.70
2019-04-21T00:11:22.550Z,12.90
2019-04-21T00:13:46.997Z,12.80
2019-04-21T00:16:08.214Z,12.60
2019-04-21T00:18:58.153Z,12.60
2019-04-21T00:21:29.196Z,12.40
2019-04-21T00:24:25.208Z,12.20
2019-04-21T00:27:03.771Z,12.10
2019-04-21T00:29:38.509Z,12.00
2019-04-21T00:32:08.723Z,12.10
2019-04-21T00:34:21.777Z,12.30
2019-04-21T00:37:04.999Z,12.00
2019-04-21T00:42:14.359Z,12.30
2019-04-21T00:44:38.788Z,12.40
2019-04-21T00:47:25.514Z,12.40
2019-04-21T00:49:56.622Z,12.00
2019-04-21T00:55:27.881Z,11.80
2019-04-21T00:57:57.430Z,11.70
2019-04-21T01:00:38.517Z,11.70
2019-04-21T01:03:14.620Z,11.60
2019-04-21T01:05:33.562Z,11.60
2019-04-21T01:07:57.991Z,11.60
2019-04-21T01:10:24.536Z,11.50
2019-04-21T01:13:09.861Z,11.10
2019-04-21T01:15:45.052Z,11.00
2019-04-21T01:18:09.285Z,10.80
2019-04-21T01:20:22.552Z,10.70
2019-04-21T01:22:53.755Z,10.50
2019-04-21T01:25:34.881Z,10.40
2019-04-21T01:28:13.520Z,10.30
2019-04-21T01:30:50.619Z,10.50
2019-04-21T01:33:21.930Z,10.50
2019-04-21T01:35:48.495Z,10.40
2019-04-21T01:38:31.715Z,10.10
2019-04-21T01:40:59.097Z,10.10
2019-04-21T01:43:27.659Z,10.00
2019-04-21T01:46:00.673Z,10.10
2019-04-21T01:48:29.088Z,10.30
2019-04-21T01:51:01.741Z,10.30
2019-04-21T01:53:42.390Z,10.30
2019-04-21T01:56:40.255Z,10.10
2019-04-21T01:59:00.794Z,10.00
2019-04-21T02:01:39.154Z,9.60
2019-04-21T02:04:16.218Z,9.50
2019-04-21T02:06:44.542Z,9.60
2019-04-21T02:09:14.889Z,9.60
2019-04-21T02:11:56.574Z,9.70
2019-04-21T02:16:54.124Z,9.50
2019-04-21T02:19:23.570Z,9.60
2019-04-21T02:21:51.376Z,9.60
2019-04-21T02:24:49.619Z,9.70
2019-04-21T02:27:06.477Z,9.60
2019-04-21T02:29:40.681Z,9.80
2019-04-21T02:32:14.783Z,9.70
2019-04-21T02:34:59.804Z,9.60
2019-04-21T02:39:57.363Z,9.40
2019-04-21T02:42:32.914Z,9.20
2019-04-21T02:45:06.630Z,9.20
2019-04-21T02:50:09.611Z,8.90
2019-04-21T02:52:37.315Z,8.90
2019-04-21T02:55:08.226Z,8.80
2019-04-21T02:57:41.483Z,8.70
2019-04-21T03:00:18.709Z,8.70
2019-04-21T03:03:03.867Z,8.80
2019-04-21T03:11:04.788Z,8.90
2019-04-21T03:13:41.646Z,8.90
2019-04-21T03:16:17.000Z,8.90
2019-04-21T03:18:42.110Z,8.80
2019-04-21T03:21:16.180Z,8.70
2019-04-21T03:23:49.378Z,8.60
2019-04-21T03:26:20.497Z,8.60
2019-04-21T03:28:42.178Z,8.50
2019-04-21T03:38:57.231Z,8.50
2019-04-21T03:41:31.711Z,8.60
2019-04-21T03:43:59.221Z,8.70
2019-04-21T03:46:32.743Z,8.70
2019-04-21T03:49:10.604Z,8.70
2019-04-21T03:54:04.974Z,8.80
2019-04-21T03:59:03.931Z,8.80
2019-04-21T04:02:08.336Z,8.90
2019-04-21T04:07:12.949Z,9.00
2019-04-21T04:09:52.249Z,9.00
2019-04-21T04:15:07.723Z,8.90
2019-04-21T04:17:25.519Z,9.00
2019-04-21T04:19:53.608Z,8.90
2019-04-21T04:22:33.278Z,9.10
2019-04-21T04:27:46.876Z,9.40
2019-04-21T04:30:07.560Z,9.40
2019-04-21T04:32:38.725Z,9.40
2019-04-21T04:35:21.913Z,9.40
2019-04-21T04:40:16.829Z,9.00
2019-04-21T04:42:56.145Z,9.10
2019-04-21T04:50:36.599Z,8.90
2019-04-21T04:52:57.999Z,9.00
2019-04-21T04:55:33.761Z,9.20
2019-04-21T04:58:07.625Z,9.30
2019-04-21T05:16:49.820Z,9.40
2019-04-21T05:23:55.893Z,9.60
2019-04-21T05:26:29.998Z,9.80
2019-04-21T05:28:55.546Z,10.00
2019-04-21T05:31:45.145Z,10.30
2019-04-21T05:34:18.999Z,10.40
2019-04-21T05:37:10.428Z,10.50
2019-04-21T05:39:39.019Z,10.50
2019-04-21T05:42:04.988Z,10.80
2019-04-21T05:47:27.509Z,11.40
2019-04-21T05:50:00.987Z,11.50
2019-04-21T05:52:44.923Z,11.20
2019-04-21T05:55:34.094Z,11.40
2019-04-21T05:58:02.676Z,11.70
2019-04-21T06:00:54.694Z,11.70
2019-04-21T06:03:09.895Z,11.80
2019-04-21T06:05:47.374Z,11.80
2019-04-21T06:08:13.353Z,11.90
2019-04-21T06:10:47.402Z,12.00
2019-04-21T06:13:18.728Z,12.20
2019-04-21T06:15:56.134Z,12.40
2019-04-21T06:18:28.907Z,12.70
2019-04-21T06:20:54.600Z,12.70
2019-04-21T06:23:25.510Z,12.70
2019-04-21T06:26:28.249Z,12.90
2019-04-21T06:28:38.916Z,12.90
2019-04-21T06:31:15.735Z,13.10
2019-04-21T06:33:35.735Z,13.00
2019-04-21T06:36:36.296Z,13.10
2019-04-21T06:44:07.585Z,13.60
2019-04-21T06:46:41.056Z,13.80
2019-04-21T06:49:22.270Z,13.70
2019-04-21T06:51:57.928Z,13.60
2019-04-21T06:54:16.197Z,13.90
2019-04-21T06:56:47.984Z,14.10
2019-04-21T06:59:16.713Z,14.10
2019-04-21T07:01:52.696Z,14.10
2019-04-21T07:06:54.942Z,14.30
2019-04-21T07:09:32.505Z,14.60
2019-04-21T07:11:55.096Z,14.50
2019-04-21T07:17:06.387Z,15.00
2019-04-21T07:19:41.254Z,15.00
2019-04-21T07:22:11.327Z,14.90
2019-04-21T07:25:00.286Z,14.90
2019-04-21T07:27:15.572Z,14.90
2019-04-21T07:29:47.437Z,15.10
2019-04-21T07:32:13.978Z,15.00
2019-04-21T07:34:49.829Z,15.30
2019-04-21T07:37:20.771Z,15.70
2019-04-21T07:39:45.076Z,15.70
2019-04-21T07:42:18.507Z,15.80
2019-04-21T07:44:51.180Z,15.90
2019-04-21T07:47:26.790Z,16.10
2019-04-21T07:50:07.335Z,15.80
2019-04-21T07:52:57.868Z,16.20
2019-04-21T07:57:51.551Z,16.20
2019-04-21T08:00:36.909Z,16.30
2019-04-21T08:03:11.964Z,16.60
2019-04-21T08:05:38.966Z,16.70
2019-04-21T08:07:59.598Z,16.60
2019-04-21T08:10:39.140Z,16.70
2019-04-21T08:13:14.789Z,17.00
2019-04-21T08:15:46.657Z,17.20
2019-04-21T08:18:16.445Z,17.30
2019-04-21T08:20:50.739Z,17.30
2019-04-21T08:23:20.419Z,17.30
2019-04-21T08:26:03.763Z,17.40
2019-04-21T08:28:26.498Z,17.20
2019-04-21T08:30:54.283Z,17.30
2019-04-21T08:33:37.168Z,17.30
2019-04-21T08:36:12.959Z,17.40
2019-04-21T08:38:36.216Z,17.70
2019-04-21T08:41:08.681Z,17.80
2019-04-21T08:46:06.727Z,18.20
2019-04-21T08:48:43.978Z,18.20
2019-04-21T08:51:20.926Z,18.20
2019-04-21T08:53:49.289Z,18.80
2019-04-21T08:56:27.410Z,19.10
2019-04-21T08:59:16.515Z,19.10
2019-04-21T09:01:55.462Z,19.30
2019-04-21T09:04:30.528Z,19.40
2019-04-21T09:07:04.849Z,19.70
2019-04-21T09:09:38.138Z,19.80
2019-04-21T09:12:04.318Z,20.10
2019-04-21T09:14:36.877Z,20.10
2019-04-21T09:17:01.717Z,20.40
2019-04-21T09:22:14.699Z,20.50
2019-04-21T09:24:41.499Z,20.60
2019-04-21T09:27:15.636Z,20.70
2019-04-21T09:29:36.728Z,20.90
2019-04-21T09:32:01.888Z,21.10
2019-04-21T09:34:36.921Z,20.80
2019-04-21T09:37:20.406Z,21.20
2019-04-21T09:39:40.938Z,21.50
2019-04-21T09:42:08.846Z,21.30
2019-04-21T09:44:43.608Z,21.30
2019-04-21T09:47:12.631Z,21.30
2019-04-21T09:49:45.149Z,21.40
2019-04-21T09:52:23.196Z,21.60
2019-04-21T09:54:56.572Z,21.40
2019-04-21T09:57:27.437Z,21.60
2019-04-21T10:00:03.640Z,21.80
2019-04-21T10:02:36.547Z,21.70
2019-04-21T10:04:55.172Z,21.60
2019-04-21T10:07:34.277Z,21.80
2019-04-21T10:09:58.327Z,21.90
2019-04-21T10:12:28.736Z,22.20
2019-04-21T10:14:59.748Z,22.10
2019-04-21T10:17:35.054Z,22.20
2019-04-21T10:20:07.169Z,22.20
2019-04-21T10:22:37.298Z,22.50
2019-04-21T10:25:10.494Z,22.40
2019-04-21T10:27:43.089Z,22.50
2019-04-21T10:30:14.242Z,22.00
2019-04-21T10:32:44.479Z,22.00
2019-04-21T10:35:15.777Z,22.50
2019-04-21T10:37:59.422Z,22.60
2019-04-21T10:40:21.272Z,22.80
2019-04-21T10:42:52.278Z,22.60
2019-04-21T10:45:23.093Z,22.30
2019-04-21T10:47:54.729Z,22.30
2019-04-21T10:50:26.714Z,22.20
2019-04-21T10:53:23.022Z,22.60
2019-04-21T10:56:06.411Z,23.20
2019-04-21T10:58:30.205Z,23.00
2019-04-21T11:01:12.726Z,22.70
2019-04-21T11:04:17.816Z,23.60
2019-04-21T11:06:42.197Z,24.00
2019-04-21T11:09:13.928Z,24.50
2019-04-21T11:11:48.119Z,24.50
2019-04-21T11:14:17.847Z,25.10
2019-04-21T11:16:49.758Z,24.40
2019-04-21T11:19:20.113Z,24.70
2019-04-21T11:21:50.123Z,24.80
2019-04-21T11:24:20.868Z,24.70
2019-04-21T11:26:51.974Z,24.70
2019-04-21T11:29:23.410Z,25.60
2019-04-21T11:31:54.857Z,25.30
2019-04-21T11:34:25.191Z,25.10
2019-04-21T11:36:56.328Z,26.10
2019-04-21T11:39:37.549Z,25.80
2019-04-21T11:42:05.954Z,26.00
2019-04-21T11:44:37.330Z,26.00
2019-04-21T11:47:10.328Z,27.00
2019-04-21T11:49:41.118Z,25.90
2019-04-21T11:52:11.427Z,26.70
2019-04-21T11:54:42.771Z,27.10
2019-04-21T11:57:20.528Z,27.70
2019-04-21T11:59:45.879Z,27.80
2019-04-21T12:02:17.271Z,28.70
2019-04-21T12:04:47.646Z,28.30
2019-04-21T12:07:17.806Z,27.50
2019-04-21T12:09:47.969Z,28.30
2019-04-21T12:12:19.592Z,28.00
2019-04-21T12:14:50.488Z,28.60
2019-04-21T12:17:20.739Z,28.80
2019-04-21T12:19:50.856Z,28.20
2019-04-21T12:22:25.516Z,28.00
2019-04-21T12:24:53.352Z,28.90
2019-04-21T12:27:23.642Z,29.30
2019-04-21T12:29:53.795Z,30.00
2019-04-21T12:32:44.302Z,29.10
2019-04-21T12:35:15.767Z,29.30
2019-04-21T12:37:49.011Z,29.50
2019-04-21T12:40:19.375Z,29.40
2019-04-21T12:42:50.722Z,28.60
2019-04-21T12:45:22.071Z,27.90
2019-04-21T12:47:53.778Z,28.60
2019-04-21T12:50:25.653Z,29.10
2019-04-21T12:52:56.079Z,28.60
2019-04-21T12:55:31.637Z,27.90
2019-04-21T12:57:59.421Z,28.20
2019-04-21T13:00:31.151Z,29.10
2019-04-21T13:03:01.666Z,29.60
2019-04-21T13:05:32.127Z,29.40
2019-04-21T13:08:03.675Z,29.90
2019-04-21T13:10:34.417Z,29.60
2019-04-21T13:13:05.963Z,29.40
2019-04-21T13:15:37.347Z,29.30
2019-04-21T13:18:08.196Z,28.50
2019-04-21T13:20:38.623Z,27.50
2019-04-21T13:23:10.055Z,28.00
2019-04-21T13:25:41.544Z,27.70
2019-04-21T13:28:12.530Z,28.10
2019-04-21T13:30:42.642Z,27.50
2019-04-21T13:33:13.308Z,27.80
2019-04-21T13:35:44.797Z,27.30
2019-04-21T13:38:24.439Z,26.60
2019-04-21T13:41:21.457Z,26.20
2019-04-21T13:43:39.170Z,25.10
2019-04-21T13:46:09.981Z,24.60
2019-04-21T13:48:40.425Z,24.90
2019-04-21T13:51:11.581Z,24.90
2019-04-21T13:53:41.916Z,24.50
2019-04-21T13:56:14.320Z,24.80
2019-04-21T13:58:44.609Z,25.00
2019-04-21T14:01:15.976Z,25.10
2019-04-21T14:03:47.319Z,25.90
2019-04-21T14:06:18.435Z,26.40
2019-04-21T14:08:50.615Z,26.60
2019-04-21T14:11:21.496Z,25.90
2019-04-21T14:13:54.303Z,25.90
2019-04-21T14:16:24.624Z,26.10
2019-04-21T14:18:55.188Z,26.10
2019-04-21T14:21:25.360Z,26.10
2019-04-21T14:23:56.390Z,26.20
2019-04-21T14:26:27.447Z,25.80
2019-04-21T14:28:58.859Z,26.00
2019-04-21T14:31:30.477Z,25.40
2019-04-21T14:34:01.739Z,25.50
2019-04-21T14:36:32.710Z,25.60
2019-04-21T14:39:05.896Z,26.00
2019-04-21T14:41:38.534Z,25.50
2019-04-21T14:44:09.155Z,25.40
2019-04-21T14:47:05.016Z,25.50
2019-04-21T14:49:42.919Z,25.30
2019-04-21T14:52:21.109Z,25.10
2019-04-21T14:54:56.345Z,24.50
2019-04-21T14:57:27.344Z,24.70
2019-04-21T14:59:57.833Z,24.70
2019-04-21T15:02:28.041Z,24.50
2019-04-21T15:04:58.091Z,24.80
2019-04-21T15:07:28.136Z,24.80
2019-04-21T15:10:04.714Z,24.90
2019-04-21T15:12:30.086Z,25.10
2019-04-21T15:15:00.359Z,25.40
2019-04-21T15:17:31.679Z,25.50
2019-04-21T15:20:06.670Z,25.40
2019-04-21T15:22:34.555Z,25.20
2019-04-21T15:25:05.843Z,24.90
2019-04-21T15:27:36.902Z,25.70
2019-04-21T15:30:09.151Z,25.60
2019-04-21T15:32:40.256Z,25.30
2019-04-21T15:35:11.128Z,25.70
2019-04-21T15:37:42.079Z,25.50
2019-04-21T15:40:21.721Z,25.50
2019-04-21T15:42:44.605Z,25.30
2019-04-21T15:45:15.015Z,24.90
2019-04-21T15:47:46.190Z,25.00
2019-04-21T15:50:19.439Z,25.20
2019-04-21T15:52:49.799Z,25.50
2019-04-21T15:55:41.285Z,25.70
2019-04-21T15:58:38.862Z,26.00
2019-04-21T16:01:16.989Z,26.40
2019-04-21T16:03:47.198Z,26.00
2019-04-21T16:06:17.455Z,25.80
2019-04-21T16:08:51.854Z,26.00
2019-04-21T16:11:19.829Z,26.00
2019-04-21T16:13:50.026Z,26.20
2019-04-21T16:16:20.440Z,25.90
2019-04-21T16:18:52.075Z,25.50
2019-04-21T16:21:24.095Z,25.40
2019-04-21T16:23:56.242Z,25.10
2019-04-21T16:26:26.844Z,25.30
2019-04-21T16:28:57.449Z,24.50
2019-04-21T16:31:27.960Z,24.50
2019-04-21T16:33:58.876Z,24.80
2019-04-21T16:36:29.536Z,24.40
2019-04-21T16:38:59.881Z,24.70
2019-04-21T16:41:30.118Z,25.00
2019-04-21T16:44:00.927Z,24.60
2019-04-21T16:46:31.649Z,24.40
2019-04-21T16:49:02.040Z,24.80
2019-04-21T16:51:32.138Z,24.50
2019-04-21T16:54:21.970Z,24.60
2019-04-21T16:56:58.037Z,24.40
2019-04-21T16:59:34.704Z,24.30
2019-04-21T17:02:05.054Z,24.20
2019-04-21T17:04:36.351Z,24.20
2019-04-21T17:07:07.326Z,23.50
2019-04-21T17:09:38.843Z,23.00
2019-04-21T17:12:13.741Z,22.70
2019-04-21T17:14:53.103Z,22.70
2019-04-21T17:17:32.471Z,22.20
2019-04-21T17:19:47.564Z,21.90
2019-04-21T17:22:17.592Z,21.50
2019-04-21T17:24:48.511Z,21.10
2019-04-21T17:27:18.748Z,20.90
2019-04-21T17:29:48.871Z,20.70
2019-04-21T17:32:20.354Z,20.50
2019-04-21T17:34:52.024Z,20.40
2019-04-21T17:37:26.782Z,20.20
2019-04-21T17:39:56.867Z,20.20
2019-04-21T17:42:37.394Z,20.00
2019-04-21T17:44:59.496Z,19.90
2019-04-21T17:47:44.276Z,19.80
2019-04-21T17:50:25.423Z,19.70
2019-04-21T17:53:05.260Z,19.60
2019-04-21T17:55:36.942Z,19.50
2019-04-21T17:58:22.074Z,19.40
2019-04-21T18:01:10.114Z,19.20
2019-04-21T18:03:41.552Z,19.30
2019-04-21T18:05:59.450Z,19.10
2019-04-21T18:08:37.116Z,19.00
2019-04-21T18:10:57.904Z,19.00
2019-04-21T18:13:24.504Z,18.80
2019-04-21T18:16:06.639Z,18.80
2019-04-21T18:18:24.589Z,18.70
2019-04-21T18:21:01.014Z,18.50
2019-04-21T18:23:52.888Z,18.50
2019-04-21T18:26:29.707Z,18.30
2019-04-21T18:28:48.629Z,18.20
2019-04-21T18:31:20.876Z,18.20
2019-04-21T18:34:08.742Z,18.20
2019-04-21T18:36:48.173Z,18.20
2019-04-21T18:39:33.919Z,18.10
2019-04-21T18:42:17.585Z,18.00
2019-04-21T18:45:32.713Z,17.90
2019-04-21T18:47:55.227Z,17.80
2019-04-21T18:50:46.025Z,17.80
2019-04-21T18:53:24.134Z,17.80
2019-04-21T18:55:48.201Z,17.90
2019-04-21T18:58:17.989Z,17.80
2019-04-21T19:00:48.789Z,17.60
2019-04-21T19:03:29.198Z,17.50
2019-04-21T19:05:58.239Z,17.40
2019-04-21T19:08:46.824Z,17.40
2019-04-21T19:11:19.649Z,17.30
2019-04-21T19:16:46.348Z,17.10
2019-04-21T19:21:32.885Z,17.10
2019-04-21T19:26:52.340Z,17.00
2019-04-21T19:29:24.098Z,17.00
2019-04-21T19:31:50.650Z,16.90
2019-04-21T19:34:14.355Z,16.80
2019-04-21T19:36:48.814Z,16.80
2019-04-21T19:39:16.267Z,16.80
2019-04-21T19:41:58.627Z,16.70
2019-04-21T19:44:33.609Z,16.60
2019-04-21T19:47:03.854Z,16.60
2019-04-21T19:49:45.472Z,16.40
2019-04-21T19:51:59.360Z,16.20
2019-04-21T19:54:33.441Z,16.30
2019-04-21T19:56:56.052Z,16.20
2019-04-21T19:59:34.543Z,16.20
2019-04-21T20:01:58.498Z,16.40
2019-04-21T20:04:34.107Z,16.40
2019-04-21T20:07:14.065Z,16.30
2019-04-21T20:09:51.383Z,16.30
2019-04-21T20:12:29.721Z,16.30
2019-04-21T20:14:59.609Z,16.20
2019-04-21T20:17:24.355Z,16.20
2019-04-21T20:19:40.631Z,16.30
2019-04-21T20:22:11.441Z,16.30
2019-04-21T20:24:50.025Z,16.20
2019-04-21T20:27:19.941Z,16.20
2019-04-21T20:30:04.101Z,16.10
2019-04-21T20:32:39.761Z,15.90
2019-04-21T20:35:16.814Z,15.90
2019-04-21T20:37:37.355Z,15.80
2019-04-21T20:40:02.273Z,15.80
2019-04-21T20:42:44.042Z,15.70
2019-04-21T20:45:29.093Z,15.70
2019-04-21T20:47:40.566Z,15.80
2019-04-21T20:50:18.369Z,15.80
2019-04-21T20:52:55.311Z,15.70
2019-04-21T20:55:19.164Z,15.70
2019-04-21T20:57:52.996Z,15.60
2019-04-21T21:00:32.548Z,15.60
2019-04-21T21:03:07.477Z,15.60
2019-04-21T21:05:35.112Z,15.60
2019-04-21T21:08:14.917Z,15.60
2019-04-21T21:10:38.553Z,15.40
2019-04-21T21:13:24.728Z,15.50
2019-04-21T21:15:52.445Z,15.40
2019-04-21T21:20:52.713Z,15.50
2019-04-21T21:23:14.063Z,15.60
2019-04-21T21:25:54.508Z,15.70
2019-04-21T21:28:25.056Z,15.30
2019-04-21T21:30:55.638Z,15.20
2019-04-21T21:33:27.566Z,15.20
2019-04-21T21:36:06.492Z,15.20
2019-04-21T21:38:36.354Z,15.10
2019-04-21T21:40:59.945Z,15.20
2019-04-21T21:43:23.625Z,15.30
2019-04-21T21:45:57.310Z,15.00
2019-04-21T21:48:39.491Z,14.80
2019-04-21T21:51:05.820Z,14.90
2019-04-21T21:53:32.609Z,14.60
2019-04-21T21:56:02.629Z,14.30
2019-04-21T21:58:38.639Z,14.40
2019-04-21T22:01:08.709Z,14.50
2019-04-21T22:03:44.554Z,14.40
2019-04-21T22:06:17.495Z,14.40
2019-04-21T22:08:42.983Z,14.40
2019-04-21T22:11:13.633Z,14.50
2019-04-21T22:13:53.244Z,14.50
2019-04-21T22:16:19.213Z,14.50
2019-04-21T22:19:10.331Z,14.40
2019-04-21T22:21:41.612Z,14.20
2019-04-21T22:23:58.075Z,14.00
2019-04-21T22:26:23.491Z,14.00
2019-04-21T22:28:53.984Z,13.90
2019-04-21T22:31:30.079Z,13.70
2019-04-21T22:34:02.162Z,13.70
2019-04-21T22:36:43.778Z,13.50
2019-04-21T22:39:20.919Z,13.60
2019-04-21T22:41:40.445Z,13.40
2019-04-21T22:44:04.880Z,13.30
2019-04-21T22:46:36.144Z,13.40
2019-04-21T22:49:09.329Z,13.40
2019-04-21T22:51:43.986Z,13.20
2019-04-21T22:54:12.723Z,13.20
2019-04-21T22:56:53.003Z,13.20
2019-04-21T22:59:18.660Z,13.20
2019-04-21T23:01:49.920Z,13.30
2019-04-21T23:04:18.020Z,13.40
2019-04-21T23:06:55.900Z,13.40
2019-04-21T23:09:20.259Z,13.20
2019-04-21T23:11:51.477Z,13.10
2019-04-21T23:14:23.651Z,13.10
2019-04-21T23:17:00.026Z,13.00
2019-04-21T23:19:41.211Z,12.80
2019-04-21T23:22:16.918Z,12.60
2019-04-21T23:24:51.559Z,12.30
2019-04-21T23:27:17.245Z,12.30
2019-04-21T23:30:15.653Z,12.20
2019-04-21T23:32:19.910Z,12.30
2019-04-21T23:34:40.336Z,12.40
2019-04-21T23:37:15.036Z,12.40
2019-04-21T23:39:43.473Z,12.30
2019-04-21T23:42:22.502Z,12.20
2019-04-21T23:44:50.084Z,12.20
2019-04-21T23:47:29.240Z,12.30
2019-04-21T23:49:58.346Z,12.30
2019-04-21T23:52:21.794Z,12.40
2019-04-21T23:54:53.441Z,12.50
2019-04-21T23:57:30.460Z,12.50
2019-04-21T23:59:58.842Z,12.50
